Time;durP1;ratioP1;P1;durP2;ratioP2;P2;SDS_P1;SDS_P2;PMS_P1;PMS_P2;Temp;Humidity;BMP_temperature;BMP_pressure;BME280_temperature;BME280_humidity;BME280_pressure;Samples;Min_cycle;Max_cycle;Signal;HPM_P1;HPM_P2
2022/09/17 00:01:04;;;;;;;;;2.00;2.00;;;;;15.26;46.68;101312.13;5055695;27;45441;-43
2022/09/17 00:03:30;;;;;;;;;3.25;2.00;;;;;15.24;46.61;101318.38;5060579;27;45395;-46
2022/09/17 00:06:05;;;;;;;;;1.75;1.75;;;;;15.24;46.73;101305.19;5053307;28;45360;-43
2022/09/17 00:08:31;;;;;;;;;2.25;2.25;;;;;15.24;46.70;101316.59;5064535;28;46306;-44
2022/09/17 00:10:57;;;;;;;;;2.75;2.00;;;;;15.26;46.44;101325.31;5069304;28;45408;-45
2022/09/17 00:13:23;;;;;;;;;2.50;1.00;;;;;15.24;46.37;101316.59;5069638;28;45362;-45
2022/09/17 00:15:50;;;;;;;;;1.00;1.00;;;;;15.27;46.83;101323.56;5071835;28;45581;-46
2022/09/17 00:18:15;;;;;;;;;1.25;1.00;;;;;15.26;46.48;101312.13;5073755;27;46585;-43
2022/09/17 00:20:43;;;;;;;;;1.75;1.25;;;;;15.26;46.78;101317.41;5068426;28;54584;-43
2022/09/17 00:23:09;;;;;;;;;2.00;2.00;;;;;15.26;46.23;101325.31;5072281;27;45497;-46
2022/09/17 00:25:41;;;;;;;;;1.00;1.00;;;;;15.24;46.71;101319.22;5071171;28;45412;-49
2022/09/17 00:28:07;;;;;;;;;3.00;1.25;;;;;15.25;46.77;101320.97;5065493;27;45404;-48
2022/09/17 00:30:33;;;;;;;;;3.25;2.75;;;;;15.26;46.43;101320.03;5079320;27;45236;-45
2022/09/17 00:32:58;;;;;;;;;2.25;2.00;;;;;15.26;46.55;101317.41;5075393;27;45305;-44
2022/09/17 00:35:24;;;;;;;;;3.50;3.00;;;;;15.27;46.58;101329.69;5068881;28;45301;-48
2022/09/17 00:37:50;;;;;;;;;2.00;2.00;;;;;15.29;46.59;101324.34;5074385;27;45417;-46
2022/09/17 00:40:15;;;;;;;;;2.00;2.00;;;;;15.29;46.84;101327.84;5070164;28;45423;-44
2022/09/17 00:42:40;;;;;;;;;3.00;1.50;;;;;15.29;46.88;101326.97;5047370;28;69268;-49
2022/09/17 00:45:08;;;;;;;;;2.00;2.00;;;;;15.28;46.75;101325.25;5058302;28;71814;-46
2022/09/17 00:47:38;;;;;;;;;1.25;1.25;;;;;15.27;46.49;101321.75;5070490;27;46339;-46
2022/09/17 00:50:14;;;;;;;;;3.75;2.00;;;;;15.26;46.82;101319.19;5062421;28;45408;-48
2022/09/17 00:52:43;;;;;;;;;4.00;2.00;;;;;15.27;46.55;101318.28;5065127;27;45545;-49
2022/09/17 00:55:16;;;;;;;;;3.25;2.00;;;;;15.27;46.78;101326.19;5056524;28;45261;-51
2022/09/17 00:57:42;;;;;;;;;1.00;1.00;;;;;15.23;46.86;101314.91;5062403;28;45410;-48
2022/09/17 01:00:08;;;;;;;;;0.75;0.50;;;;;15.17;46.54;101316.00;5062148;28;45580;-46
2022/09/17 01:02:34;;;;;;;;;5.25;1.00;;;;;15.15;46.77;101323.06;5074502;27;45457;-47
2022/09/17 01:04:59;;;;;;;;;1.50;1.00;;;;;15.15;47.13;101325.69;5052210;28;45502;-47
2022/09/17 01:07:57;;;;;;;;;2.00;1.00;;;;;15.17;46.94;101329.16;5075680;27;46104;-45
2022/09/17 01:10:51;;;;;;;;;3.00;1.00;;;;;15.16;47.19;101327.44;5078981;27;45902;-48
2022/09/17 01:13:35;;;;;;;;;2.00;1.00;;;;;15.15;46.88;101328.34;5069930;27;45384;-47
2022/09/17 01:16:13;;;;;;;;;1.00;1.00;;;;;15.12;47.08;101324.97;5036370;28;45455;-46
2022/09/17 01:18:46;;;;;;;;;1.25;1.25;;;;;15.12;47.44;101330.22;5062257;28;46665;-49
2022/09/17 01:21:45;;;;;;;;;1.00;1.00;;;;;15.11;47.23;101329.38;5051375;28;45734;-50
2022/09/17 01:24:47;;;;;;;;;1.50;1.00;;;;;15.06;47.33;101327.84;5038258;28;45382;-49
2022/09/17 01:27:46;;;;;;;;;3.75;0.75;;;;;15.08;47.14;101329.47;5045339;28;45334;-48
2022/09/17 01:30:39;;;;;;;;;3.00;1.00;;;;;15.04;47.24;101335.78;5061508;28;47090;-48
2022/09/17 01:33:25;;;;;;;;;1.25;1.00;;;;;14.98;47.61;101336.88;5064326;28;45734;-51
2022/09/17 01:36:29;;;;;;;;;1.00;0.75;;;;;14.97;47.61;101335.13;5076482;27;45412;-50
2022/09/17 01:39:17;;;;;;;;;2.00;0.50;;;;;14.93;47.73;101343.22;5055529;28;45429;-47
2022/09/17 01:41:45;;;;;;;;;0.50;0.00;;;;;14.90;47.55;101343.34;5052465;28;46323;-48
2022/09/17 01:44:33;;;;;;;;;1.00;1.00;;;;;14.81;47.57;101333.97;5061319;28;45323;-49
2022/09/17 01:47:10;;;;;;;;;0.50;0.50;;;;;14.84;47.75;101348.81;5068411;27;45409;-47
2022/09/17 01:49:38;;;;;;;;;2.00;1.25;;;;;14.78;47.57;101344.63;5093638;27;45308;-46
2022/09/17 01:52:03;;;;;;;;;0.25;0.00;;;;;14.73;47.88;101339.53;5046611;28;45417;-46
2022/09/17 01:54:41;;;;;;;;;3.00;2.00;;;;;14.73;47.90;101350.06;5044255;28;45411;-46
2022/09/17 01:57:18;;;;;;;;;4.25;2.00;;;;;14.72;47.96;101355.38;5061039;28;45285;-44
2022/09/17 02:00:16;;;;;;;;;1.00;1.00;;;;;14.72;48.17;101355.38;5064357;28;46165;-48
2022/09/17 02:03:03;;;;;;;;;1.00;1.00;;;;;14.71;48.01;101356.28;5067103;27;46583;-49
2022/09/17 02:05:45;;;;;;;;;2.00;1.00;;;;;14.69;47.79;101356.31;5075278;27;45441;-50
2022/09/17 02:08:14;;;;;;;;;2.00;1.00;;;;;14.68;47.96;101346.72;5054295;28;45397;-47
2022/09/17 02:10:47;;;;;;;;;2.00;1.25;;;;;14.67;48.21;101352.03;5089278;27;45242;-47
2022/09/17 02:13:17;;;;;;;;;2.00;1.00;;;;;14.64;48.08;101346.88;5051174;28;45442;-45
2022/09/17 02:15:53;;;;;;;;;0.00;0.00;;;;;14.63;48.16;101358.34;5053702;28;45742;-45
2022/09/17 02:18:44;;;;;;;;;1.00;1.00;;;;;14.58;48.43;101348.78;5077288;27;45421;-49
2022/09/17 02:21:32;;;;;;;;;1.75;1.00;;;;;14.54;48.79;101357.69;5053595;28;45407;-48
2022/09/17 02:24:24;;;;;;;;;4.00;0.25;;;;;14.50;48.96;101349.94;5019953;27;47226;-46
2022/09/17 02:26:57;;;;;;;;;2.75;2.00;;;;;14.49;48.31;101356.97;5058294;28;45446;-47
2022/09/17 02:29:37;;;;;;;;;0.75;0.00;;;;;14.48;48.75;101357.88;5073092;27;45382;-46
2022/09/17 02:32:04;;;;;;;;;2.00;2.00;;;;;14.50;48.87;101360.47;5055103;28;45240;-47
2022/09/17 02:34:30;;;;;;;;;2.00;0.50;;;;;14.47;49.13;101350.91;5074408;27;47982;-47
2022/09/17 02:36:58;;;;;;;;;3.25;1.00;;;;;14.48;48.65;101355.25;5078960;28;45327;-46
2022/09/17 02:39:24;;;;;;;;;3.50;1.00;;;;;14.46;48.45;101348.31;5078257;27;45293;-48
2022/09/17 02:42:14;;;;;;;;;1.00;1.00;;;;;14.44;48.21;101348.38;5050794;28;45355;-48
2022/09/17 02:44:52;;;;;;;;;1.00;1.00;;;;;14.41;48.83;101344.06;5067797;27;45574;-46
2022/09/17 02:47:36;;;;;;;;;2.00;1.00;;;;;14.40;48.74;101337.06;5059774;28;45410;-48
2022/09/17 02:50:02;;;;;;;;;1.75;1.00;;;;;14.40;48.77;101341.50;5070959;28;45309;-48
2022/09/17 02:52:53;;;;;;;;;2.33;1.00;;;;;14.37;48.40;101345.06;5067659;27;45480;-47
2022/09/17 02:55:23;;;;;;;;;2.50;1.00;;;;;14.35;48.89;101341.63;5038676;28;46940;-50
2022/09/17 02:58:03;;;;;;;;;0.75;0.75;;;;;14.35;48.77;101344.25;5050135;28;45402;-45
2022/09/17 03:00:29;;;;;;;;;1.50;0.75;;;;;14.33;48.38;101346.09;5050564;28;45485;-50
2022/09/17 03:02:59;;;;;;;;;3.75;1.75;;;;;14.32;48.54;101344.34;5053410;28;45318;-47
2022/09/17 03:05:25;;;;;;;;;2.00;1.25;;;;;14.31;48.75;101345.28;5038665;28;46417;-49
2022/09/17 03:07:50;;;;;;;;;0.75;0.75;;;;;14.29;48.68;101348.84;5052807;28;45313;-51
2022/09/17 03:10:17;;;;;;;;;2.00;1.00;;;;;14.27;48.49;101345.41;5065996;28;45920;-51
2022/09/17 03:12:43;;;;;;;;;1.00;1.00;;;;;14.24;48.77;101349.03;5078884;27;45305;-50
2022/09/17 03:15:09;;;;;;;;;2.75;1.00;;;;;14.21;48.39;101343.84;5078128;27;69042;-48
2022/09/17 03:17:34;;;;;;;;;1.25;1.00;;;;;14.20;48.55;101343.00;5070953;28;45385;-51
2022/09/17 03:19:59;;;;;;;;;1.00;1.00;;;;;14.19;49.05;101343.91;5057514;28;45425;-43
2022/09/17 03:22:25;;;;;;;;;1.00;1.00;;;;;14.21;49.02;101341.22;5049953;28;73163;-44
2022/09/17 03:24:50;;;;;;;;;1.00;1.00;;;;;14.21;48.80;101341.22;5064607;27;45384;-43
2022/09/17 03:27:16;;;;;;;;;1.25;1.00;;;;;14.22;48.76;101348.22;5070095;28;56802;-45
2022/09/17 03:29:41;;;;;;;;;4.00;1.00;;;;;14.19;49.01;101349.16;5062190;28;45328;-44
2022/09/17 03:32:07;;;;;;;;;0.75;0.75;;;;;14.17;48.89;101348.34;5070638;28;69192;-45
2022/09/17 03:34:32;;;;;;;;;2.50;1.00;;;;;14.16;48.81;101351.88;5077998;27;46267;-45
2022/09/17 03:36:58;;;;;;;;;1.00;1.00;;;;;14.15;48.49;101350.19;5078554;27;45297;-44
2022/09/17 03:39:23;;;;;;;;;3.00;1.00;;;;;14.16;49.00;101346.63;5047380;27;46889;-44
2022/09/17 03:41:49;;;;;;;;;1.00;0.75;;;;;14.16;48.86;101344.00;5074189;27;45577;-44
2022/09/17 03:44:14;;;;;;;;;3.75;2.00;;;;;14.18;48.97;101349.22;5056877;27;46335;-45
2022/09/17 03:46:40;;;;;;;;;1.00;1.00;;;;;14.18;48.94;101355.34;5078334;28;45347;-45
2022/09/17 03:49:05;;;;;;;;;4.00;1.00;;;;;14.19;49.02;101351.81;5060005;28;45525;-44
2022/09/17 03:51:31;;;;;;;;;1.50;1.00;;;;;14.19;49.05;101356.22;5051267;28;45533;-44
2022/09/17 03:53:56;;;;;;;;;2.25;1.00;;;;;14.19;49.39;101357.06;5054390;28;51979;-46
2022/09/17 03:56:22;;;;;;;;;2.00;1.00;;;;;14.15;49.09;101351.97;5065631;27;70480;-45
2022/09/17 03:58:47;;;;;;;;;2.25;1.00;;;;;14.13;48.91;101365.16;5074240;27;61950;-44
2022/09/17 04:01:12;;;;;;;;;3.00;1.50;;;;;14.11;48.67;101366.13;5063187;28;70469;-46
2022/09/17 04:03:38;;;;;;;;;2.25;1.00;;;;;14.09;49.05;101353.00;5065640;28;45205;-44
2022/09/17 04:06:03;;;;;;;;;2.50;2.00;;;;;14.09;48.96;101360.03;5060184;28;45266;-49
2022/09/17 04:08:29;;;;;;;;;2.25;1.00;;;;;14.07;48.82;101361.88;5073498;28;45245;-47
2022/09/17 04:10:54;;;;;;;;;1.00;1.00;;;;;14.07;49.40;101364.50;5061647;27;63105;-44
2022/09/17 04:13:20;;;;;;;;;3.00;1.75;;;;;14.05;49.41;101362.75;5073589;27;46227;-44
2022/09/17 04:15:45;;;;;;;;;1.00;1.00;;;;;14.07;49.45;101375.88;5062411;28;45724;-44
2022/09/17 04:18:11;;;;;;;;;4.25;0.75;;;;;14.08;49.63;101380.25;5080748;27;45309;-46
2022/09/17 04:20:36;;;;;;;;;0.75;0.75;;;;;14.08;49.66;101382.00;5079125;27;45569;-45
2022/09/17 04:23:02;;;;;;;;;5.00;1.00;;;;;14.00;49.58;101374.34;5066217;28;56074;-44
2022/09/17 04:25:27;;;;;;;;;3.25;1.00;;;;;14.05;49.74;101385.59;5064235;28;45363;-45
2022/09/17 04:27:52;;;;;;;;;0.00;0.00;;;;;14.03;49.81;101383.00;5074504;27;67044;-44
2022/09/17 04:30:18;;;;;;;;;3.00;1.00;;;;;14.01;49.49;101384.84;5080419;27;67775;-48
2022/09/17 04:32:44;;;;;;;;;1.00;1.00;;;;;14.02;49.99;101398.84;5078376;27;69470;-46
2022/09/17 04:35:10;;;;;;;;;1.75;1.50;;;;;14.00;49.93;101390.13;5075303;27;45288;-47
2022/09/17 04:37:36;;;;;;;;;1.00;1.00;;;;;14.02;49.83;101397.09;5075769;27;45245;-45
2022/09/17 04:40:02;;;;;;;;;1.00;1.00;;;;;14.02;50.28;101393.56;5081496;27;45332;-45
2022/09/17 04:42:27;;;;;;;;;4.25;1.00;;;;;14.02;50.40;101398.84;5052272;27;45401;-45
2022/09/17 04:44:52;;;;;;;;;2.00;1.00;;;;;14.01;49.92;101392.72;5065410;27;45292;-44
2022/09/17 04:47:18;;;;;;;;;2.00;2.00;;;;;14.01;50.10;101399.75;5074403;27;64454;-44
2022/09/17 04:49:43;;;;;;;;;2.00;0.75;;;;;14.00;50.22;101390.13;5079304;27;64271;-45
2022/09/17 04:52:09;;;;;;;;;2.00;2.00;;;;;14.01;50.10;101402.41;5069752;27;46290;-45
2022/09/17 04:54:35;;;;;;;;;1.00;1.00;;;;;13.99;50.17;101397.19;5075005;27;56759;-49
2022/09/17 04:57:00;;;;;;;;;1.25;1.00;;;;;13.93;50.36;101383.34;5064225;27;64093;-44
2022/09/17 04:59:25;;;;;;;;;2.25;1.00;;;;;13.97;50.40;101393.72;5074997;27;57502;-44
2022/09/17 05:01:51;;;;;;;;;3.50;1.00;;;;;13.95;50.61;101399.94;5071465;27;51735;-46
2022/09/17 05:04:16;;;;;;;;;3.00;2.00;;;;;13.91;50.24;101409.69;5075536;28;45403;-47
2022/09/17 05:06:41;;;;;;;;;3.00;2.00;;;;;13.89;50.12;101408.03;5067393;28;62038;-44
2022/09/17 05:09:07;;;;;;;;;2.00;2.00;;;;;13.88;50.51;101408.94;5073434;27;65798;-45
2022/09/17 05:11:32;;;;;;;;;4.50;1.00;;;;;13.84;50.80;101401.13;5074270;27;45943;-47
2022/09/17 05:13:57;;;;;;;;;2.50;1.25;;;;;13.80;50.60;101404.75;5079302;27;45313;-44
2022/09/17 05:16:23;;;;;;;;;1.00;1.00;;;;;13.77;50.96;101409.25;5058630;28;65494;-49
2022/09/17 05:18:50;;;;;;;;;2.00;1.00;;;;;13.72;51.18;101405.88;5051653;28;64075;-45
2022/09/17 05:21:16;;;;;;;;;2.00;1.00;;;;;13.71;50.73;101407.66;5068119;28;46325;-50
2022/09/17 05:23:41;;;;;;;;;2.00;1.50;;;;;13.70;50.72;101405.06;5073792;28;45426;-46
2022/09/17 05:26:07;;;;;;;;;2.25;1.50;;;;;13.70;50.87;101418.22;5062040;27;68018;-46
2022/09/17 05:28:32;;;;;;;;;2.75;1.00;;;;;13.68;51.38;101407.75;5075174;27;45226;-45
2022/09/17 05:30:58;;;;;;;;;1.00;1.00;;;;;13.65;50.91;101415.72;5065072;27;45490;-45
2022/09/17 05:33:24;;;;;;;;;3.25;2.00;;;;;13.65;51.26;101418.34;5074324;27;45757;-49
2022/09/17 05:35:49;;;;;;;;;2.00;0.25;;;;;13.64;51.70;101417.50;5073286;27;61510;-46
2022/09/17 05:38:14;;;;;;;;;2.50;2.00;;;;;13.64;51.20;101425.38;5061169;28;65822;-45
2022/09/17 05:40:40;;;;;;;;;2.00;2.00;;;;;13.61;51.07;101417.56;5075027;27;46564;-44
2022/09/17 05:43:06;;;;;;;;;2.25;2.00;;;;;13.63;51.08;101425.41;5063044;28;45282;-47
2022/09/17 05:45:32;;;;;;;;;1.50;1.00;;;;;13.63;51.57;101418.41;5050134;28;45547;-47
2022/09/17 05:47:59;;;;;;;;;5.00;3.00;;;;;13.65;51.60;101418.34;5080766;27;45295;-46
2022/09/17 05:50:25;;;;;;;;;2.00;2.00;;;;;13.63;51.34;101425.41;5078739;27;46247;-48
2022/09/17 05:52:51;;;;;;;;;1.00;1.00;;;;;13.61;51.62;101424.63;5062655;28;45394;-46
2022/09/17 05:55:17;;;;;;;;;2.00;1.50;;;;;13.59;51.42;101426.44;5045392;28;45463;-44
2022/09/17 05:57:43;;;;;;;;;1.00;1.00;;;;;13.57;51.26;101425.63;5050573;28;45197;-44
2022/09/17 06:00:10;;;;;;;;;0.00;0.00;;;;;13.55;51.26;101430.06;5079067;27;45412;-44
2022/09/17 06:02:35;;;;;;;;;2.25;2.00;;;;;13.55;51.44;101437.94;5056845;28;45443;-44
2022/09/17 06:05:02;;;;;;;;;1.00;1.00;;;;;13.56;51.39;101440.50;5078160;27;45472;-45
2022/09/17 06:07:28;;;;;;;;;2.75;1.75;;;;;13.55;51.63;101432.69;5072062;27;45276;-47
2022/09/17 06:09:53;;;;;;;;;3.00;2.00;;;;;13.55;51.47;101436.16;5040332;28;46976;-44
2022/09/17 06:12:18;;;;;;;;;4.00;1.75;;;;;13.56;51.08;101442.28;5068913;27;45241;-45
2022/09/17 06:14:44;;;;;;;;;3.00;0.00;;;;;13.55;51.38;101438.81;5074692;28;62506;-45
2022/09/17 06:17:09;;;;;;;;;1.50;1.25;;;;;13.55;51.71;101441.44;5058692;28;47768;-47
2022/09/17 06:19:34;;;;;;;;;1.50;1.00;;;;;13.55;51.46;101453.72;5045239;28;71092;-46
2022/09/17 06:22:00;;;;;;;;;1.00;1.00;;;;;13.55;50.87;101444.06;5073767;27;70586;-45
2022/09/17 06:24:26;;;;;;;;;2.00;1.00;;;;;13.57;51.38;101452.75;5068915;27;45369;-50
2022/09/17 06:26:52;;;;;;;;;1.00;1.00;;;;;13.55;51.02;101459.84;5062103;27;45245;-45
2022/09/17 06:29:17;;;;;;;;;4.25;2.00;;;;;13.56;50.83;101442.28;5043897;28;45431;-45
2022/09/17 06:31:43;;;;;;;;;4.50;2.00;;;;;13.59;51.29;101447.47;5069139;27;45424;-47
2022/09/17 06:34:09;;;;;;;;;2.00;2.00;;;;;13.60;51.27;101450.06;5079640;27;45339;-47
2022/09/17 06:36:34;;;;;;;;;3.00;3.00;;;;;13.62;51.34;101448.25;5067987;27;45586;-44
2022/09/17 06:38:59;;;;;;;;;6.00;2.00;;;;;13.63;51.33;101449.09;5066336;27;74185;-46
2022/09/17 06:41:26;;;;;;;;;3.25;2.25;;;;;13.65;50.87;101449.91;5061487;28;45299;-45
2022/09/17 06:43:54;;;;;;;;;2.50;2.00;;;;;13.69;50.87;101451.56;5068084;28;45376;-46
2022/09/17 06:46:19;;;;;;;;;5.75;3.00;;;;;13.71;51.04;101454.16;5076405;27;45449;-45
2022/09/17 06:48:44;;;;;;;;;2.50;1.00;;;;;13.75;51.04;101456.63;5043779;28;62170;-47
2022/09/17 06:51:10;;;;;;;;;4.50;1.00;;;;;13.76;50.74;101463.63;5074192;27;45461;-45
2022/09/17 06:53:37;;;;;;;;;2.50;1.50;;;;;13.78;50.72;101466.22;5060787;28;45202;-44
2022/09/17 06:56:03;;;;;;;;;5.00;1.75;;;;;13.77;50.68;101465.34;5054530;28;45750;-48
2022/09/17 06:58:28;;;;;;;;;4.00;2.50;;;;;13.78;50.29;101461.81;5073222;27;45399;-47
2022/09/17 07:01:01;;;;;;;;;4.75;3.00;;;;;13.80;50.39;101469.66;5064647;28;45256;-47
2022/09/17 07:03:27;;;;;;;;;5.00;2.00;;;;;13.81;50.41;101464.38;5074055;28;45284;-50
2022/09/17 07:05:52;;;;;;;;;3.50;1.75;;;;;13.86;50.75;101462.47;5064321;28;45474;-47
2022/09/17 07:08:18;;;;;;;;;3.25;2.00;;;;;13.88;50.49;101465.03;5072401;28;46118;-51
2022/09/17 07:10:43;;;;;;;;;2.00;2.00;;;;;13.89;50.34;101466.78;5073871;27;45348;-48
2022/09/17 07:13:08;;;;;;;;;3.25;1.00;;;;;13.89;50.04;101469.41;5045341;28;45284;-48
2022/09/17 07:15:34;;;;;;;;;2.75;2.75;;;;;13.85;50.09;101463.38;5060357;28;68648;-47
2022/09/17 07:18:07;;;;;;;;;1.00;1.00;;;;;13.85;50.34;101463.38;5058715;28;46155;-48
2022/09/17 07:20:32;;;;;;;;;4.00;2.50;;;;;13.85;49.85;101467.78;5074407;27;45672;-51
2022/09/17 07:22:57;;;;;;;;;2.00;2.00;;;;;13.83;50.23;101459.06;5078587;27;45348;-49
2022/09/17 07:25:25;;;;;;;;;3.00;1.25;;;;;13.83;50.15;101461.69;5049346;28;45539;-50
2022/09/17 07:27:51;;;;;;;;;2.00;2.00;;;;;13.83;49.88;101462.56;5078781;27;45471;-53
2022/09/17 07:30:16;;;;;;;;;3.25;1.50;;;;;13.84;49.84;101463.41;5067644;27;45341;-46
2022/09/17 07:32:42;;;;;;;;;1.75;1.75;;;;;13.83;49.67;101462.56;5060399;28;45545;-45
2022/09/17 07:35:07;;;;;;;;;2.50;2.00;;;;;13.84;49.29;101461.63;5071979;27;45266;-44
2022/09/17 07:37:32;;;;;;;;;2.00;1.75;;;;;13.91;49.20;101462.31;5044018;28;46134;-44
2022/09/17 07:39:58;;;;;;;;;2.00;1.25;;;;;13.95;49.18;101457.81;5078647;27;54016;-47
2022/09/17 07:42:23;;;;;;;;;2.75;2.00;;;;;13.99;49.25;101454.22;5070425;28;47462;-45
2022/09/17 07:44:49;;;;;;;;;0.25;0.25;;;;;14.00;48.77;101451.50;5060289;28;45289;-45
2022/09/17 07:47:14;;;;;;;;;1.00;1.00;;;;;14.05;48.42;101459.28;5061297;27;49701;-46
2022/09/17 07:49:39;;;;;;;;;4.25;2.00;;;;;14.10;48.63;101465.28;5080674;27;60851;-46
2022/09/17 07:52:05;;;;;;;;;2.25;2.25;;;;;14.15;48.59;101458.09;5069018;28;66003;-46
2022/09/17 07:54:32;;;;;;;;;2.00;2.00;;;;;14.20;48.73;101469.38;5049000;27;45478;-45
2022/09/17 07:56:57;;;;;;;;;3.50;2.00;;;;;14.25;48.44;101463.94;5064412;27;45456;-45
2022/09/17 07:59:23;;;;;;;;;2.50;2.00;;;;;14.29;48.59;101465.59;5080006;27;45463;-45
2022/09/17 08:01:48;;;;;;;;;3.25;2.00;;;;;14.35;48.72;101464.53;5055397;27;45336;-45
2022/09/17 08:04:14;;;;;;;;;4.00;1.25;;;;;14.40;48.03;101466.09;5082051;27;45280;-48
2022/09/17 08:06:39;;;;;;;;;3.50;0.00;;;;;14.44;47.89;101470.34;5081505;27;47020;-45
2022/09/17 08:09:06;;;;;;;;;3.00;1.50;;;;;14.49;48.14;101464.09;5063801;28;45292;-45
2022/09/17 08:11:31;;;;;;;;;5.00;2.00;;;;;14.54;48.28;101464.81;5046371;28;45486;-47
2022/09/17 08:13:57;;;;;;;;;8.75;5.00;;;;;14.62;47.99;101473.34;5053595;28;45505;-46
2022/09/17 08:16:23;;;;;;;;;5.00;2.00;;;;;14.67;47.36;101473.22;5046423;27;47092;-46
2022/09/17 08:18:54;;;;;;;;;6.00;1.00;;;;;14.70;47.44;101466.06;5053325;28;45429;-45
2022/09/17 08:21:20;;;;;;;;;4.75;1.00;;;;;14.75;47.63;101466.78;5062978;28;45372;-47
2022/09/17 08:23:46;;;;;;;;;2.25;2.00;;;;;14.79;47.19;101476.31;5063375;28;45388;-50
2022/09/17 08:26:21;;;;;;;;;3.50;1.75;;;;;14.87;46.99;101478.69;5070758;27;45300;-46
2022/09/17 08:28:48;;;;;;;;;21.25;17.50;;;;;14.92;46.82;101486.44;5068200;27;45379;-50
2022/09/17 08:31:15;;;;;;;;;3.75;2.00;;;;;14.97;47.40;101487.16;5073242;27;45374;-46
2022/09/17 08:33:41;;;;;;;;;5.75;4.00;;;;;14.99;47.30;101488.81;5074161;27;45459;-47
2022/09/17 08:36:08;;;;;;;;;4.00;3.25;;;;;15.03;47.10;101488.72;5066462;27;45394;-44
2022/09/17 08:38:36;;;;;;;;;4.00;1.00;;;;;15.02;46.83;101485.22;5061423;28;45437;-48
2022/09/17 08:41:13;;;;;;;;;1.75;1.00;;;;;15.05;46.88;101490.41;5068559;27;45328;-45
2022/09/17 08:44:00;;;;;;;;;2.00;1.50;;;;;15.05;47.13;101495.69;5073723;27;45537;-48
2022/09/17 08:46:25;;;;;;;;;2.25;0.50;;;;;15.04;47.14;101493.94;5073900;27;45300;-44
2022/09/17 08:49:04;;;;;;;;;2.75;1.50;;;;;15.06;47.13;101494.75;5065834;28;61161;-49
2022/09/17 08:51:57;;;;;;;;;7.00;2.00;;;;;15.11;47.06;101506.00;5071605;27;45386;-47
2022/09/17 08:54:47;;;;;;;;;2.50;2.00;;;;;15.17;47.14;101504.94;5053542;28;45237;-51
2022/09/17 08:57:34;;;;;;;;;1.00;1.00;;;;;15.23;46.99;101511.78;5069065;27;45372;-49
2022/09/17 09:00:09;;;;;;;;;3.25;1.00;;;;;15.25;47.00;101510.81;5080479;27;45229;-44
2022/09/17 09:02:57;;;;;;;;;2.50;0.75;;;;;15.29;46.57;101516.84;5058616;28;45459;-46
2022/09/17 09:05:43;;;;;;;;;3.25;1.00;;;;;15.29;46.69;101514.22;5067803;27;45514;-48
2022/09/17 09:08:15;;;;;;;;;3.00;2.00;;;;;15.34;46.97;101512.28;5062545;28;46217;-47
2022/09/17 09:10:55;;;;;;;;;3.50;1.25;;;;;15.40;46.78;101505.94;5077611;28;46410;-50
2022/09/17 09:13:24;;;;;;;;;2.75;1.00;;;;;15.42;46.91;101507.59;5063257;28;45343;-49
2022/09/17 09:16:02;;;;;;;;;4.00;1.50;;;;;15.46;46.63;101500.47;5075219;28;45420;-49
2022/09/17 09:18:35;;;;;;;;;1.25;0.00;;;;;15.54;46.58;101508.94;5087449;27;46418;-47
2022/09/17 09:21:19;;;;;;;;;2.50;0.00;;;;;15.60;46.60;101513.13;5055258;28;45677;-46
2022/09/17 09:24:02;;;;;;;;;2.50;1.00;;;;;15.67;46.37;101509.34;5059353;28;45412;-47
2022/09/17 09:26:40;;;;;;;;;1.25;1.00;;;;;15.70;45.99;101511.91;5052121;28;45409;-45
2022/09/17 09:29:23;;;;;;;;;5.25;1.75;;;;;15.72;45.40;101521.50;5073082;28;46334;-46
2022/09/17 09:32:14;;;;;;;;;3.00;1.75;;;;;15.76;45.33;101519.63;5062391;28;45462;-47
2022/09/17 09:34:39;;;;;;;;;2.00;0.00;;;;;15.82;44.86;101513.28;5070215;28;45385;-48
2022/09/17 09:37:23;;;;;;;;;4.75;0.50;;;;;15.89;45.49;101520.91;5079803;28;45472;-47
2022/09/17 09:39:50;;;;;;;;;3.25;0.50;;;;;15.99;45.27;101521.44;5062419;28;45489;-47
2022/09/17 09:42:26;;;;;;;;;3.00;0.50;;;;;16.06;45.33;101524.69;5060575;28;45729;-49
2022/09/17 09:44:52;;;;;;;;;2.00;1.75;;;;;16.12;45.27;101527.13;5060226;28;45296;-49
2022/09/17 09:47:20;;;;;;;;;0.00;0.00;;;;;16.20;44.22;101530.34;5071471;28;45463;-46
2022/09/17 09:50:11;;;;;;;;;1.75;1.00;;;;;16.22;43.09;101523.22;5069053;28;46281;-47
2022/09/17 09:52:45;;;;;;;;;0.75;0.00;;;;;16.26;43.86;101527.44;5068737;28;45290;-51
2022/09/17 09:55:38;;;;;;;;;0.00;0.00;;;;;16.28;43.72;101522.97;5080098;28;45372;-49
2022/09/17 09:58:32;;;;;;;;;4.25;0.50;;;;;16.33;42.88;101523.66;5069991;28;45165;-47
2022/09/17 10:00:58;;;;;;;;;3.00;0.75;;;;;16.38;43.34;101512.91;5079918;28;45286;-51
2022/09/17 10:03:30;;;;;;;;;0.75;0.25;;;;;16.44;43.32;101514.47;5064964;28;45324;-47
2022/09/17 10:06:04;;;;;;;;;1.25;1.00;;;;;16.52;43.29;101509.75;5061748;28;45250;-51
2022/09/17 10:08:32;;;;;;;;;2.00;1.25;;;;;16.59;43.17;101508.56;5075962;28;45475;-46
2022/09/17 10:11:21;;;;;;;;;4.75;2.25;;;;;16.68;42.75;101515.28;5045762;28;47033;-46
2022/09/17 10:13:47;;;;;;;;;3.00;1.00;;;;;16.74;43.16;101520.31;5051434;28;45745;-46
2022/09/17 10:16:16;;;;;;;;;1.00;0.00;;;;;16.78;42.39;101518.41;5073321;28;45374;-44
2022/09/17 10:18:42;;;;;;;;;1.00;1.00;;;;;16.83;43.24;101511.13;5074708;28;45226;-45
2022/09/17 10:21:18;;;;;;;;;3.25;1.00;;;;;16.91;43.17;101514.38;5060556;28;46395;-44
2022/09/17 10:23:44;;;;;;;;;3.00;1.00;;;;;16.99;42.07;101514.06;5079785;28;45824;-45
2022/09/17 10:26:24;;;;;;;;;2.75;1.00;;;;;17.03;41.19;101526.22;5080354;28;45441;-44
2022/09/17 10:28:51;;;;;;;;;2.00;2.00;;;;;17.05;40.94;101519.06;5054877;28;45261;-44
2022/09/17 10:31:16;;;;;;;;;1.00;0.00;;;;;17.05;41.29;101516.44;5068552;28;45288;-46
2022/09/17 10:33:52;;;;;;;;;1.50;0.00;;;;;17.06;41.59;101507.59;5134986;27;45443;-45
2022/09/17 10:36:37;;;;;;;;;1.75;0.00;;;;;17.08;41.09;101513.66;5113243;27;45716;-45
2022/09/17 10:39:26;;;;;;;;;0.00;0.00;;;;;17.10;40.82;101509.16;5097394;27;45432;-48
2022/09/17 10:41:58;;;;;;;;;1.00;1.00;;;;;17.15;40.59;101511.63;5099941;27;45590;-45
2022/09/17 10:44:26;;;;;;;;;0.50;0.50;;;;;17.21;40.83;101508.72;5113039;27;45263;-45
2022/09/17 10:46:52;;;;;;;;;1.00;1.00;;;;;17.27;39.70;101505.81;5096551;27;45816;-48
2022/09/17 10:49:39;;;;;;;;;0.00;0.00;;;;;17.31;38.53;101504.75;5132085;27;45350;-47
2022/09/17 10:52:33;;;;;;;;;1.00;0.00;;;;;17.35;39.88;101506.34;5101700;27;45477;-50
2022/09/17 10:55:22;;;;;;;;;0.00;0.00;;;;;17.33;39.84;101505.53;5105375;27;46654;-45
2022/09/17 10:57:52;;;;;;;;;3.00;1.00;;;;;17.35;39.30;101502.84;5094810;27;45407;-44
2022/09/17 11:00:20;;;;;;;;;2.00;0.75;;;;;17.38;39.32;101487.69;5123953;27;45307;-49
2022/09/17 11:03:07;;;;;;;;;3.50;1.75;;;;;17.41;39.27;101490.19;5110157;27;45432;-47
2022/09/17 11:05:54;;;;;;;;;0.00;0.00;;;;;17.42;36.97;101489.28;5115761;27;46296;-48
2022/09/17 11:08:24;;;;;;;;;2.00;0.00;;;;;17.48;37.06;101479.38;5115669;27;45226;-46
2022/09/17 11:10:56;;;;;;;;;0.50;0.50;;;;;17.50;37.60;101481.00;5114853;27;45465;-44
2022/09/17 11:13:27;;;;;;;;;2.00;1.25;;;;;17.57;37.84;101471.00;5116212;27;45366;-48
2022/09/17 11:16:01;;;;;;;;;3.00;3.00;;;;;17.63;38.08;101471.56;5116124;27;46952;-44
2022/09/17 11:18:34;;;;;;;;;1.00;0.00;;;;;17.67;38.01;101461.75;5094377;27;45367;-44
2022/09/17 11:21:31;;;;;;;;;9.50;6.00;;;;;17.71;36.45;101468.59;5107167;27;45409;-45
2022/09/17 11:24:04;;;;;;;;;4.00;2.00;;;;;17.75;38.26;101470.16;5117692;27;45396;-49
2022/09/17 11:27:05;;;;;;;;;1.25;1.25;;;;;17.74;38.15;101464.94;5105775;27;46931;-46
2022/09/17 11:30:13;;;;;;;;;2.00;2.00;;;;;17.74;37.45;101455.25;5109979;27;45721;-47
2022/09/17 11:33:16;;;;;;;;;2.00;1.00;;;;;17.78;37.54;101464.75;5033522;28;45876;-52
2022/09/17 11:35:47;;;;;;;;;4.00;1.00;;;;;17.79;37.34;101465.59;5041028;28;45423;-45
2022/09/17 11:38:28;;;;;;;;;0.00;0.00;;;;;17.79;36.90;101460.31;5110533;27;46190;-47
2022/09/17 11:41:06;;;;;;;;;3.00;3.00;;;;;17.82;35.14;101455.72;5119949;27;45816;-46
2022/09/17 11:43:34;;;;;;;;;2.00;1.00;;;;;17.85;35.57;101449.44;5110365;27;45485;-50